sensor_id;sensor_type;location;lat;lon;timestamp;pressure;altitude;pressure_sealevel;temperature;humidity
68948;BME280;55996;49.546;7.400;2023-10-08T00:01:15;99502.44;;;15.46;100.00
68948;BME280;55996;49.546;7.400;2023-10-08T00:03:44;99516.59;;;15.43;100.00
68948;BME280;55996;49.546;7.400;2023-10-08T00:06:17;99516.09;;;15.33;100.00
68948;BME280;55996;49.546;7.400;2023-10-08T00:08:44;99525.16;;;15.48;100.00
68948;BME280;55996;49.546;7.400;2023-10-08T00:11:10;99520.97;;;15.43;100.00
68948;BME280;55996;49.546;7.400;2023-10-08T00:13:36;99525.72;;;15.35;100.00
68948;BME280;55996;49.546;7.400;2023-10-08T00:16:13;99525.28;;;15.23;100.00
68948;BME280;55996;49.546;7.400;2023-10-08T00:18:43;99523.00;;;15.14;100.00
68948;BME280;55996;49.546;7.400;2023-10-08T00:21:16;99525.75;;;15.11;100.00
68948;BME280;55996;49.546;7.400;2023-10-08T00:23:46;99524.09;;;15.08;100.00
68948;BME280;55996;49.546;7.400;2023-10-08T00:26:21;99521.16;;;15.16;100.00
68948;BME280;55996;49.546;7.400;2023-10-08T00:29:00;99536.66;;;15.24;100.00
68948;BME280;55996;49.546;7.400;2023-10-08T00:31:27;99514.56;;;15.04;100.00
68948;BME280;55996;49.546;7.400;2023-10-08T00:33:58;99535.88;;;14.98;100.00
68948;BME280;55996;49.546;7.400;2023-10-08T00:36:23;99531.22;;;14.81;100.00
68948;BME280;55996;49.546;7.400;2023-10-08T00:38:49;99534.56;;;14.86;100.00
68948;BME280;55996;49.546;7.400;2023-10-08T00:41:28;99526.69;;;14.86;100.00
68948;BME280;55996;49.546;7.400;2023-10-08T00:43:56;99506.91;;;14.74;100.00
68948;BME280;55996;49.546;7.400;2023-10-08T00:46:23;99521.00;;;14.73;100.00
68948;BME280;55996;49.546;7.400;2023-10-08T00:48:50;99524.22;;;14.81;100.00
68948;BME280;55996;49.546;7.400;2023-10-08T00:51:20;99519.84;;;14.80;100.00
68948;BME280;55996;49.546;7.400;2023-10-08T00:53:57;99522.38;;;14.83;100.00
68948;BME280;55996;49.546;7.400;2023-10-08T00:56:31;99511.03;;;14.81;100.00
68948;BME280;55996;49.546;7.400;2023-10-08T00:59:16;99519.84;;;14.80;100.00
68948;BME280;55996;49.546;7.400;2023-10-08T01:01:45;99507.59;;;14.79;100.00
68948;BME280;55996;49.546;7.400;2023-10-08T01:06:42;99510.59;;;14.70;100.00
68948;BME280;55996;49.546;7.400;2023-10-08T01:09:08;99505.50;;;14.65;100.00
68948;BME280;55996;49.546;7.400;2023-10-08T01:11:44;99487.19;;;14.61;100.00
68948;BME280;55996;49.546;7.400;2023-10-08T01:14:16;99495.72;;;14.69;100.00
68948;BME280;55996;49.546;7.400;2023-10-08T01:16:46;99502.84;;;14.65;100.00
68948;BME280;55996;49.546;7.400;2023-10-08T01:19:17;99498.13;;;14.75;100.00
68948;BME280;55996;49.546;7.400;2023-10-08T01:21:44;99479.91;;;14.69;100.00
68948;BME280;55996;49.546;7.400;2023-10-08T01:24:10;99481.66;;;14.68;100.00
68948;BME280;55996;49.546;7.400;2023-10-08T01:26:39;99501.66;;;14.74;100.00
68948;BME280;55996;49.546;7.400;2023-10-08T01:29:09;99481.28;;;14.79;100.00
68948;BME280;55996;49.546;7.400;2023-10-08T01:31:36;99491.97;;;14.75;100.00
68948;BME280;55996;49.546;7.400;2023-10-08T01:34:02;99479.03;;;14.68;100.00
68948;BME280;55996;49.546;7.400;2023-10-08T01:36:30;99493.44;;;14.58;100.00
68948;BME280;55996;49.546;7.400;2023-10-08T01:38:56;99488.16;;;14.58;100.00
68948;BME280;55996;49.546;7.400;2023-10-08T01:41:22;99492.59;;;14.58;100.00
68948;BME280;55996;49.546;7.400;2023-10-08T01:43:55;99498.63;;;14.60;100.00
68948;BME280;55996;49.546;7.400;2023-10-08T01:46:20;99472.28;;;14.38;100.00
68948;BME280;55996;49.546;7.400;2023-10-08T01:48:47;99488.78;;;14.41;100.00
68948;BME280;55996;49.546;7.400;2023-10-08T01:51:14;99489.72;;;14.40;100.00
68948;BME280;55996;49.546;7.400;2023-10-08T01:53:53;99486.72;;;14.49;100.00
68948;BME280;55996;49.546;7.400;2023-10-08T01:56:19;99487.81;;;14.44;100.00
68948;BME280;55996;49.546;7.400;2023-10-08T01:58:45;99483.72;;;14.35;100.00
68948;BME280;55996;49.546;7.400;2023-10-08T02:01:12;99479.22;;;14.39;100.00
68948;BME280;55996;49.546;7.400;2023-10-08T02:03:41;99483.69;;;14.36;100.00
68948;BME280;55996;49.546;7.400;2023-10-08T02:06:07;99495.22;;;14.32;100.00
68948;BME280;55996;49.546;7.400;2023-10-08T02:08:33;99476.19;;;14.26;100.00
68948;BME280;55996;49.546;7.400;2023-10-08T02:10:59;99485.03;;;14.23;100.00
68948;BME280;55996;49.546;7.400;2023-10-08T02:13:24;99494.59;;;14.26;100.00
68948;BME280;55996;49.546;7.400;2023-10-08T02:15:51;99482.91;;;14.09;100.00
68948;BME280;55996;49.546;7.400;2023-10-08T02:18:20;99489.59;;;14.18;100.00
68948;BME280;55996;49.546;7.400;2023-10-08T02:20:45;99483.97;;;14.03;100.00
68948;BME280;55996;49.546;7.400;2023-10-08T02:23:11;99496.34;;;14.00;100.00
68948;BME280;55996;49.546;7.400;2023-10-08T02:25:40;99488.94;;;13.86;100.00
68948;BME280;55996;49.546;7.400;2023-10-08T02:28:07;99483.25;;;13.73;100.00
68948;BME280;55996;49.546;7.400;2023-10-08T02:30:37;99492.38;;;13.61;100.00
68948;BME280;55996;49.546;7.400;2023-10-08T02:33:07;99491.09;;;13.46;100.00
68948;BME280;55996;49.546;7.400;2023-10-08T02:35:46;99490.16;;;13.49;100.00
68948;BME280;55996;49.546;7.400;2023-10-08T02:38:15;99502.44;;;13.48;100.00
68948;BME280;55996;49.546;7.400;2023-10-08T02:40:46;99502.72;;;13.39;100.00
68948;BME280;55996;49.546;7.400;2023-10-08T02:43:13;99488.84;;;13.34;100.00
68948;BME280;55996;49.546;7.400;2023-10-08T02:45:43;99505.59;;;13.30;100.00
68948;BME280;55996;49.546;7.400;2023-10-08T02:48:13;99516.13;;;13.30;100.00
68948;BME280;55996;49.546;7.400;2023-10-08T02:50:44;99481.72;;;13.09;100.00
68948;BME280;55996;49.546;7.400;2023-10-08T02:53:13;99502.44;;;13.18;100.00
68948;BME280;55996;49.546;7.400;2023-10-08T02:55:43;99499.28;;;13.07;100.00
68948;BME280;55996;49.546;7.400;2023-10-08T02:58:12;99501.88;;;13.08;100.00
68948;BME280;55996;49.546;7.400;2023-10-08T03:00:43;99502.66;;;13.11;100.00
68948;BME280;55996;49.546;7.400;2023-10-08T03:03:09;99508.03;;;13.06;100.00
68948;BME280;55996;49.546;7.400;2023-10-08T03:05:54;99522.19;;;13.02;100.00
68948;BME280;55996;49.546;7.400;2023-10-08T03:08:22;99521.88;;;12.83;100.00
68948;BME280;55996;49.546;7.400;2023-10-08T03:10:52;99524.94;;;12.97;100.00
68948;BME280;55996;49.546;7.400;2023-10-08T03:13:21;99518.41;;;12.81;100.00
68948;BME280;55996;49.546;7.400;2023-10-08T03:15:47;99513.28;;;12.76;100.00
68948;BME280;55996;49.546;7.400;2023-10-08T03:18:28;99513.94;;;12.84;100.00
68948;BME280;55996;49.546;7.400;2023-10-08T03:21:08;99508.88;;;12.78;100.00
68948;BME280;55996;49.546;7.400;2023-10-08T03:23:47;99491.69;;;12.68;100.00
68948;BME280;55996;49.546;7.400;2023-10-08T03:26:13;99510.84;;;12.70;100.00
68948;BME280;55996;49.546;7.400;2023-10-08T03:29:01;99509.22;;;12.66;100.00
68948;BME280;55996;49.546;7.400;2023-10-08T03:31:31;99505.69;;;12.67;100.00
68948;BME280;55996;49.546;7.400;2023-10-08T03:34:15;99509.13;;;12.69;100.00
68948;BME280;55996;49.546;7.400;2023-10-08T03:36:42;99496.94;;;12.68;100.00
68948;BME280;55996;49.546;7.400;2023-10-08T03:39:10;99503.16;;;12.64;100.00
68948;BME280;55996;49.546;7.400;2023-10-08T03:41:39;99501.44;;;12.63;100.00
68948;BME280;55996;49.546;7.400;2023-10-08T03:44:06;99498.59;;;12.70;100.00
68948;BME280;55996;49.546;7.400;2023-10-08T03:46:37;99493.47;;;12.66;100.00
68948;BME280;55996;49.546;7.400;2023-10-08T03:49:13;99502.72;;;12.79;100.00
68948;BME280;55996;49.546;7.400;2023-10-08T03:51:48;99507.91;;;12.81;100.00
68948;BME280;55996;49.546;7.400;2023-10-08T03:54:21;99508.69;;;12.84;100.00
68948;BME280;55996;49.546;7.400;2023-10-08T03:57:09;99505.16;;;12.85;100.00
68948;BME280;55996;49.546;7.400;2023-10-08T03:59:40;99486.16;;;12.77;100.00
68948;BME280;55996;49.546;7.400;2023-10-08T04:02:07;99497.00;;;12.95;100.00
68948;BME280;55996;49.546;7.400;2023-10-08T04:04:40;99502.13;;;12.99;100.00
68948;BME280;55996;49.546;7.400;2023-10-08T04:07:25;99471.28;;;12.78;100.00
68948;BME280;55996;49.546;7.400;2023-10-08T04:10:01;99487.41;;;12.94;100.00
68948;BME280;55996;49.546;7.400;2023-10-08T04:12:39;99492.84;;;12.87;100.00
68948;BME280;55996;49.546;7.400;2023-10-08T04:15:16;99474.28;;;12.64;100.00
68948;BME280;55996;49.546;7.400;2023-10-08T04:17:42;99495.22;;;12.67;100.00
68948;BME280;55996;49.546;7.400;2023-10-08T04:20:16;99496.75;;;12.74;100.00
68948;BME280;55996;49.546;7.400;2023-10-08T04:23:02;99505.59;;;12.71;100.00
68948;BME280;55996;49.546;7.400;2023-10-08T04:25:29;99501.53;;;12.59;100.00
68948;BME280;55996;49.546;7.400;2023-10-08T04:27:59;99509.47;;;12.56;100.00
68948;BME280;55996;49.546;7.400;2023-10-08T04:30:35;99528.09;;;12.47;100.00
68948;BME280;55996;49.546;7.400;2023-10-08T04:35:35;99524.81;;;12.39;100.00
68948;BME280;55996;49.546;7.400;2023-10-08T04:38:20;99515.72;;;12.52;100.00
68948;BME280;55996;49.546;7.400;2023-10-08T04:40:51;99518.00;;;12.65;100.00
68948;BME280;55996;49.546;7.400;2023-10-08T04:43:18;99507.66;;;12.58;100.00
68948;BME280;55996;49.546;7.400;2023-10-08T04:45:54;99502.44;;;12.58;100.00
68948;BME280;55996;49.546;7.400;2023-10-08T04:48:22;99501.53;;;12.59;100.00
68948;BME280;55996;49.546;7.400;2023-10-08T04:50:49;99506.13;;;12.51;100.00
68948;BME280;55996;49.546;7.400;2023-10-08T04:53:31;99503.50;;;12.51;100.00
68948;BME280;55996;49.546;7.400;2023-10-08T04:56:00;99503.66;;;12.47;100.00
68948;BME280;55996;49.546;7.400;2023-10-08T04:58:46;99495.97;;;12.39;100.00
68948;BME280;55996;49.546;7.400;2023-10-08T05:01:13;99513.44;;;12.40;100.00
68948;BME280;55996;49.546;7.400;2023-10-08T05:03:57;99501.75;;;12.19;100.00
68948;BME280;55996;49.546;7.400;2023-10-08T05:06:27;99503.59;;;12.15;100.00
68948;BME280;55996;49.546;7.400;2023-10-08T05:09:05;99516.06;;;12.05;100.00
68948;BME280;55996;49.546;7.400;2023-10-08T05:11:50;99511.16;;;11.91;100.00
68948;BME280;55996;49.546;7.400;2023-10-08T05:14:21;99501.44;;;11.97;100.00
68948;BME280;55996;49.546;7.400;2023-10-08T05:17:03;99501.09;;;11.76;100.00
68948;BME280;55996;49.546;7.400;2023-10-08T05:19:37;99527.09;;;11.84;100.00
68948;BME280;55996;49.546;7.400;2023-10-08T05:22:08;99527.34;;;11.73;100.00
68948;BME280;55996;49.546;7.400;2023-10-08T05:24:46;99513.53;;;11.66;100.00
68948;BME280;55996;49.546;7.400;2023-10-08T05:27:35;99532.44;;;11.79;100.00
68948;BME280;55996;49.546;7.400;2023-10-08T05:30:26;99520.38;;;11.72;100.00
68948;BME280;55996;49.546;7.400;2023-10-08T05:33:18;99526.41;;;11.75;100.00
68948;BME280;55996;49.546;7.400;2023-10-08T05:35:50;99539.69;;;11.68;100.00
68948;BME280;55996;49.546;7.400;2023-10-08T05:38:22;99524.72;;;11.73;100.00
68948;BME280;55996;49.546;7.400;2023-10-08T05:41:04;99553.13;;;11.90;100.00
68948;BME280;55996;49.546;7.400;2023-10-08T05:43:35;99533.31;;;11.79;100.00
68948;BME280;55996;49.546;7.400;2023-10-08T05:46:08;99522.88;;;11.76;100.00
68948;BME280;55996;49.546;7.400;2023-10-08T05:48:54;99536.81;;;11.78;100.00
68948;BME280;55996;49.546;7.400;2023-10-08T05:51:49;99537.41;;;11.54;100.00
68948;BME280;55996;49.546;7.400;2023-10-08T05:54:19;99549.69;;;11.50;100.00
68948;BME280;55996;49.546;7.400;2023-10-08T05:57:01;99533.25;;;11.45;100.00
68948;BME280;55996;49.546;7.400;2023-10-08T06:02:34;99534.13;;;11.44;100.00
68948;BME280;55996;49.546;7.400;2023-10-08T06:05:01;99541.09;;;11.45;100.00
68948;BME280;55996;49.546;7.400;2023-10-08T06:13:02;99543.94;;;11.34;100.00
68948;BME280;55996;49.546;7.400;2023-10-08T06:15:41;99558.50;;;11.48;100.00
68948;BME280;55996;49.546;7.400;2023-10-08T06:18:18;99552.38;;;11.47;100.00
68948;BME280;55996;49.546;7.400;2023-10-08T06:20:45;99569.81;;;11.48;100.00
68948;BME280;55996;49.546;7.400;2023-10-08T06:23:14;99575.94;;;11.47;100.00
68948;BME280;55996;49.546;7.400;2023-10-08T06:25:47;99563.66;;;11.51;100.00
68948;BME280;55996;49.546;7.400;2023-10-08T06:28:19;99556.84;;;11.42;100.00
68948;BME280;55996;49.546;7.400;2023-10-08T06:30:49;99574.78;;;11.60;100.00
68948;BME280;55996;49.546;7.400;2023-10-08T06:33:15;99559.28;;;11.51;100.00
68948;BME280;55996;49.546;7.400;2023-10-08T06:35:42;99579.16;;;11.60;100.00
68948;BME280;55996;49.546;7.400;2023-10-08T06:38:11;99572.84;;;11.69;100.00
68948;BME280;55996;49.546;7.400;2023-10-08T06:40:40;99583.84;;;11.83;100.00
68948;BME280;55996;49.546;7.400;2023-10-08T06:43:06;99578.09;;;11.69;100.00
68948;BME280;55996;49.546;7.400;2023-10-08T06:45:43;99560.50;;;11.74;100.00
68948;BME280;55996;49.546;7.400;2023-10-08T06:48:10;99555.13;;;11.80;100.00
68948;BME280;55996;49.546;7.400;2023-10-08T06:50:43;99552.53;;;11.77;100.00
68948;BME280;55996;49.546;7.400;2023-10-08T06:53:10;99583.56;;;11.97;100.00
68948;BME280;55996;49.546;7.400;2023-10-08T06:55:39;99566.81;;;12.03;100.00
68948;BME280;55996;49.546;7.400;2023-10-08T06:58:05;99570.13;;;12.11;100.00
68948;BME280;55996;49.546;7.400;2023-10-08T07:00:32;99586.63;;;12.15;100.00
68948;BME280;55996;49.546;7.400;2023-10-08T07:03:04;99573.31;;;12.22;100.00
68948;BME280;55996;49.546;7.400;2023-10-08T07:05:29;99571.38;;;12.29;100.00
68948;BME280;55996;49.546;7.400;2023-10-08T07:07:55;99589.34;;;12.45;100.00
68948;BME280;55996;49.546;7.400;2023-10-08T07:10:20;99563.13;;;12.45;100.00
68948;BME280;55996;49.546;7.400;2023-10-08T07:12:48;99578.34;;;12.65;100.00
68948;BME280;55996;49.546;7.400;2023-10-08T07:15:17;99583.28;;;12.75;100.00
68948;BME280;55996;49.546;7.400;2023-10-08T07:17:49;99600.28;;;12.94;100.00
68948;BME280;55996;49.546;7.400;2023-10-08T07:20:17;99588.88;;;12.95;100.00
68948;BME280;55996;49.546;7.400;2023-10-08T07:22:47;99609.47;;;13.10;100.00
68948;BME280;55996;49.546;7.400;2023-10-08T07:25:22;99609.94;;;13.23;100.00
68948;BME280;55996;49.546;7.400;2023-10-08T07:27:48;99610.59;;;13.31;100.00
68948;BME280;55996;49.546;7.400;2023-10-08T07:30:14;99619.25;;;13.35;100.00
68948;BME280;55996;49.546;7.400;2023-10-08T07:32:52;99613.88;;;13.39;100.00
68948;BME280;55996;49.546;7.400;2023-10-08T07:35:20;99609.13;;;13.52;100.00
68948;BME280;55996;49.546;7.400;2023-10-08T07:37:45;99599.53;;;13.51;100.00
68948;BME280;55996;49.546;7.400;2023-10-08T07:40:15;99622.75;;;13.65;100.00
68948;BME280;55996;49.546;7.400;2023-10-08T07:42:40;99597.41;;;13.63;100.00
68948;BME280;55996;49.546;7.400;2023-10-08T07:45:06;99611.75;;;13.81;100.00
68948;BME280;55996;49.546;7.400;2023-10-08T07:47:32;99610.69;;;13.86;100.00
68948;BME280;55996;49.546;7.400;2023-10-08T07:49:57;99596.56;;;13.91;100.00
68948;BME280;55996;49.546;7.400;2023-10-08T07:52:24;99610.72;;;14.13;100.00
68948;BME280;55996;49.546;7.400;2023-10-08T07:54:50;99612.94;;;14.26;100.00
68948;BME280;55996;49.546;7.400;2023-10-08T07:57:16;99624.78;;;14.39;100.00
68948;BME280;55996;49.546;7.400;2023-10-08T07:59:51;99619.09;;;14.51;100.00
68948;BME280;55996;49.546;7.400;2023-10-08T08:02:20;99607.28;;;14.63;100.00
68948;BME280;55996;49.546;7.400;2023-10-08T08:04:52;99618.16;;;15.05;100.00
68948;BME280;55996;49.546;7.400;2023-10-08T08:07:18;99617.19;;;15.31;100.00
68948;BME280;55996;49.546;7.400;2023-10-08T08:09:46;99630.81;;;15.42;100.00
68948;BME280;55996;49.546;7.400;2023-10-08T08:12:24;99614.09;;;15.43;100.00
68948;BME280;55996;49.546;7.400;2023-10-08T08:14:53;99610.97;;;15.56;100.00
68948;BME280;55996;49.546;7.400;2023-10-08T08:17:22;99622.53;;;15.75;100.00
68948;BME280;55996;49.546;7.400;2023-10-08T08:19:49;99619.66;;;15.81;100.00
68948;BME280;55996;49.546;7.400;2023-10-08T08:22:16;99636.47;;;16.01;100.00
68948;BME280;55996;49.546;7.400;2023-10-08T08:24:49;99625.66;;;16.07;100.00
68948;BME280;55996;49.546;7.400;2023-10-08T08:27:19;99611.75;;;16.46;100.00
68948;BME280;55996;49.546;7.400;2023-10-08T08:29:57;99615.41;;;16.65;100.00
68948;BME280;55996;49.546;7.400;2023-10-08T08:32:35;99615.06;;;16.93;100.00
68948;BME280;55996;49.546;7.400;2023-10-08T08:35:00;99619.78;;;17.05;100.00
68948;BME280;55996;49.546;7.400;2023-10-08T08:37:28;99620.78;;;17.03;100.00
68948;BME280;55996;49.546;7.400;2023-10-08T08:39:57;99611.09;;;17.22;100.00
68948;BME280;55996;49.546;7.400;2023-10-08T08:42:23;99617.56;;;17.36;100.00
68948;BME280;55996;49.546;7.400;2023-10-08T08:44:50;99599.84;;;17.38;100.00
68948;BME280;55996;49.546;7.400;2023-10-08T08:47:17;99615.34;;;17.46;100.00
68948;BME280;55996;49.546;7.400;2023-10-08T08:49:44;99629.75;;;17.57;100.00
68948;BME280;55996;49.546;7.400;2023-10-08T08:52:10;99621.53;;;17.83;100.00
68948;BME280;55996;49.546;7.400;2023-10-08T08:54:37;99616.03;;;18.24;100.00
68948;BME280;55996;49.546;7.400;2023-10-08T08:57:03;99611.44;;;18.45;100.00
68948;BME280;55996;49.546;7.400;2023-10-08T08:59:30;99608.56;;;18.67;100.00
68948;BME280;55996;49.546;7.400;2023-10-08T09:01:59;99624.25;;;19.06;100.00
68948;BME280;55996;49.546;7.400;2023-10-08T09:04:29;99623.00;;;19.13;100.00
68948;BME280;55996;49.546;7.400;2023-10-08T09:06:55;99613.59;;;19.23;100.00
68948;BME280;55996;49.546;7.400;2023-10-08T09:09:21;99611.78;;;19.41;100.00
68948;BME280;55996;49.546;7.400;2023-10-08T09:11:51;99612.09;;;19.35;100.00
68948;BME280;55996;49.546;7.400;2023-10-08T09:14:21;99606.63;;;19.38;100.00
68948;BME280;55996;49.546;7.400;2023-10-08T09:16:48;99625.00;;;19.57;100.00
68948;BME280;55996;49.546;7.400;2023-10-08T09:19:15;99625.41;;;19.33;100.00
68948;BME280;55996;49.546;7.400;2023-10-08T09:21:44;99626.03;;;19.39;100.00
68948;BME280;55996;49.546;7.400;2023-10-08T09:24:24;99610.44;;;19.16;100.00
68948;BME280;55996;49.546;7.400;2023-10-08T09:26:52;99617.97;;;19.24;100.00
68948;BME280;55996;49.546;7.400;2023-10-08T09:29:17;99616.25;;;19.23;100.00
68948;BME280;55996;49.546;7.400;2023-10-08T09:31:52;99613.75;;;19.04;100.00
68948;BME280;55996;49.546;7.400;2023-10-08T09:34:21;99617.09;;;19.24;100.00
68948;BME280;55996;49.546;7.400;2023-10-08T09:36:47;99615.84;;;19.47;100.00
68948;BME280;55996;49.546;7.400;2023-10-08T09:39:13;99615.09;;;19.77;100.00
68948;BME280;55996;49.546;7.400;2023-10-08T09:41:49;99599.75;;;20.14;95.80
68948;BME280;55996;49.546;7.400;2023-10-08T09:44:18;99608.03;;;20.54;90.72
68948;BME280;55996;49.546;7.400;2023-10-08T09:46:49;99594.34;;;20.46;97.98
68948;BME280;55996;49.546;7.400;2023-10-08T09:49:21;99608.25;;;20.66;89.32
68948;BME280;55996;49.546;7.400;2023-10-08T09:51:49;99598.56;;;20.64;93.22
68948;BME280;55996;49.546;7.400;2023-10-08T09:54:23;99607.25;;;20.83;89.89
68948;BME280;55996;49.546;7.400;2023-10-08T09:56:58;99605.63;;;20.94;92.60
68948;BME280;55996;49.546;7.400;2023-10-08T09:59:27;99609.25;;;20.79;89.54
68948;BME280;55996;49.546;7.400;2023-10-08T10:01:54;99600.13;;;20.83;90.94
68948;BME280;55996;49.546;7.400;2023-10-08T10:04:25;99609.91;;;20.97;84.78
68948;BME280;55996;49.546;7.400;2023-10-08T10:06:54;99612.09;;;20.90;84.68
68948;BME280;55996;49.546;7.400;2023-10-08T10:09:23;99610.59;;;21.01;87.51
68948;BME280;55996;49.546;7.400;2023-10-08T10:11:50;99612.03;;;21.06;86.29
68948;BME280;55996;49.546;7.400;2023-10-08T10:14:16;99611.34;;;21.03;86.43
68948;BME280;55996;49.546;7.400;2023-10-08T10:16:43;99611.25;;;21.19;83.87
68948;BME280;55996;49.546;7.400;2023-10-08T10:19:17;99617.78;;;21.42;85.70
68948;BME280;55996;49.546;7.400;2023-10-08T10:21:46;99598.59;;;21.37;81.67
68948;BME280;55996;49.546;7.400;2023-10-08T10:24:35;99602.47;;;21.45;82.73
68948;BME280;55996;49.546;7.400;2023-10-08T10:27:13;99615.38;;;21.52;88.06
68948;BME280;55996;49.546;7.400;2023-10-08T10:29:43;99612.38;;;21.58;82.37
68948;BME280;55996;49.546;7.400;2023-10-08T10:32:13;99594.69;;;21.57;82.66
68948;BME280;55996;49.546;7.400;2023-10-08T10:34:41;99594.56;;;21.73;77.72
68948;BME280;55996;49.546;7.400;2023-10-08T10:37:07;99594.16;;;21.79;79.62
68948;BME280;55996;49.546;7.400;2023-10-08T10:39:55;99594.69;;;21.84;79.14
68948;BME280;55996;49.546;7.400;2023-10-08T10:42:22;99586.88;;;21.96;72.61
68948;BME280;55996;49.546;7.400;2023-10-08T10:44:49;99587.63;;;21.98;78.93
68948;BME280;55996;49.546;7.400;2023-10-08T10:47:19;99579.97;;;21.93;77.83
68948;BME280;55996;49.546;7.400;2023-10-08T10:49:49;99590.53;;;21.80;76.18
68948;BME280;55996;49.546;7.400;2023-10-08T10:52:32;99598.25;;;21.70;81.32
68948;BME280;55996;49.546;7.400;2023-10-08T10:55:09;99592.50;;;21.91;75.15
68948;BME280;55996;49.546;7.400;2023-10-08T10:57:54;99588.16;;;22.03;78.12
68948;BME280;55996;49.546;7.400;2023-10-08T11:00:30;99584.16;;;22.10;74.97
68948;BME280;55996;49.546;7.400;2023-10-08T11:03:00;99592.22;;;21.96;78.21
68948;BME280;55996;49.546;7.400;2023-10-08T11:05:29;99588.50;;;21.98;78.41
68948;BME280;55996;49.546;7.400;2023-10-08T11:08:00;99579.06;;;21.80;77.93
68948;BME280;55996;49.546;7.400;2023-10-08T11:10:38;99581.16;;;22.02;77.41
68948;BME280;55996;49.546;7.400;2023-10-08T11:13:08;99578.41;;;22.16;80.88
68948;BME280;55996;49.546;7.400;2023-10-08T11:15:42;99571.78;;;22.09;78.49
68948;BME280;55996;49.546;7.400;2023-10-08T11:18:11;99575.06;;;22.00;78.07
68948;BME280;55996;49.546;7.400;2023-10-08T11:20:37;99570.53;;;22.15;77.79
68948;BME280;55996;49.546;7.400;2023-10-08T11:23:08;99574.66;;;22.06;81.08
68948;BME280;55996;49.546;7.400;2023-10-08T11:25:58;99575.66;;;22.18;77.63
68948;BME280;55996;49.546;7.400;2023-10-08T11:28:34;99567.16;;;22.25;79.43
68948;BME280;55996;49.546;7.400;2023-10-08T11:31:04;99553.78;;;22.13;74.67
68948;BME280;55996;49.546;7.400;2023-10-08T11:33:42;99569.69;;;22.27;76.20
68948;BME280;55996;49.546;7.400;2023-10-08T11:36:10;99552.97;;;22.25;73.59
68948;BME280;55996;49.546;7.400;2023-10-08T11:38:44;99558.81;;;22.17;77.96
68948;BME280;55996;49.546;7.400;2023-10-08T11:41:15;99551.91;;;22.28;72.98
68948;BME280;55996;49.546;7.400;2023-10-08T11:43:54;99567.03;;;22.14;78.00
68948;BME280;55996;49.546;7.400;2023-10-08T11:46:28;99571.94;;;22.20;77.94
68948;BME280;55996;49.546;7.400;2023-10-08T11:48:59;99574.38;;;22.23;76.92
68948;BME280;55996;49.546;7.400;2023-10-08T11:51:33;99565.41;;;22.39;80.08
68948;BME280;55996;49.546;7.400;2023-10-08T11:54:03;99548.66;;;22.50;78.32
68948;BME280;55996;49.546;7.400;2023-10-08T11:56:32;99556.56;;;22.51;78.11
68948;BME280;55996;49.546;7.400;2023-10-08T11:59:01;99551.75;;;22.56;77.60
68948;BME280;55996;49.546;7.400;2023-10-08T12:01:30;99549.56;;;22.36;75.41
68948;BME280;55996;49.546;7.400;2023-10-08T12:04:00;99531.19;;;22.46;78.27
68948;BME280;55996;49.546;7.400;2023-10-08T12:06:26;99547.06;;;22.60;73.25
68948;BME280;55996;49.546;7.400;2023-10-08T12:08:55;99537.34;;;22.72;74.79
68948;BME280;55996;49.546;7.400;2023-10-08T12:11:24;99548.78;;;22.74;74.90
68948;BME280;55996;49.546;7.400;2023-10-08T12:13:56;99547.28;;;22.70;76.21
68948;BME280;55996;49.546;7.400;2023-10-08T12:16:24;99549.38;;;22.91;72.65
68948;BME280;55996;49.546;7.400;2023-10-08T12:18:51;99555.28;;;22.83;73.80
68948;BME280;55996;49.546;7.400;2023-10-08T12:21:24;99561.00;;;23.02;73.46
68948;BME280;55996;49.546;7.400;2023-10-08T12:23:50;99560.38;;;22.99;76.61
68948;BME280;55996;49.546;7.400;2023-10-08T12:26:17;99554.28;;;23.10;72.73
68948;BME280;55996;49.546;7.400;2023-10-08T12:28:47;99558.13;;;23.05;71.10
68948;BME280;55996;49.546;7.400;2023-10-08T12:31:18;99555.56;;;23.04;72.11
68948;BME280;55996;49.546;7.400;2023-10-08T12:33:50;99559.19;;;23.03;72.41
68948;BME280;55996;49.546;7.400;2023-10-08T12:36:28;99563.66;;;23.15;72.66
68948;BME280;55996;49.546;7.400;2023-10-08T12:38:58;99535.22;;;22.90;72.46
68948;BME280;55996;49.546;7.400;2023-10-08T12:41:24;99560.91;;;23.04;72.99
68948;BME280;55996;49.546;7.400;2023-10-08T12:43:52;99551.50;;;22.98;72.94
68948;BME280;55996;49.546;7.400;2023-10-08T12:46:19;99543.22;;;23.16;71.83
68948;BME280;55996;49.546;7.400;2023-10-08T12:48:52;99550.69;;;23.72;68.20
68948;BME280;55996;49.546;7.400;2023-10-08T12:51:19;99547.44;;;23.93;68.06
68948;BME280;55996;49.546;7.400;2023-10-08T12:53:50;99539.03;;;24.22;68.08
68948;BME280;55996;49.546;7.400;2023-10-08T12:56:27;99526.94;;;24.52;67.06
68948;BME280;55996;49.546;7.400;2023-10-08T12:59:05;99513.94;;;24.58;61.82
68948;BME280;55996;49.546;7.400;2023-10-08T13:01:34;99523.44;;;24.51;63.29
68948;BME280;55996;49.546;7.400;2023-10-08T13:04:01;99509.03;;;24.18;65.94
68948;BME280;55996;49.546;7.400;2023-10-08T13:06:33;99520.06;;;24.25;65.77
68948;BME280;55996;49.546;7.400;2023-10-08T13:08:59;99519.88;;;24.62;64.55
68948;BME280;55996;49.546;7.400;2023-10-08T13:11:26;99533.25;;;24.62;61.85
68948;BME280;55996;49.546;7.400;2023-10-08T13:13:55;99516.91;;;24.78;62.63
68948;BME280;55996;49.546;7.400;2023-10-08T13:16:25;99518.09;;;24.96;61.36
68948;BME280;55996;49.546;7.400;2023-10-08T13:18:52;99521.00;;;25.16;59.90
68948;BME280;55996;49.546;7.400;2023-10-08T13:21:18;99518.38;;;25.60;60.65
68948;BME280;55996;49.546;7.400;2023-10-08T13:23:50;99518.22;;;26.48;59.44
68948;BME280;55996;49.546;7.400;2023-10-08T13:26:15;99510.38;;;27.37;55.52